sensor_id;sensor_type;location;lat;lon;timestamp;temperature;humidity
17284;DHT22;8760;52.248;20.952;2022-09-13T00:00:39;9.30;99.90
17284;DHT22;8760;52.248;20.952;2022-09-13T00:03:08;9.30;99.90
17284;DHT22;8760;52.248;20.952;2022-09-13T00:05:36;9.30;99.90
17284;DHT22;8760;52.248;20.952;2022-09-13T00:08:04;9.20;99.90
17284;DHT22;8760;52.248;20.952;2022-09-13T00:10:32;9.20;99.90
17284;DHT22;8760;52.248;20.952;2022-09-13T00:12:59;9.20;99.90
17284;DHT22;8760;52.248;20.952;2022-09-13T00:15:27;9.20;99.90
17284;DHT22;8760;52.248;20.952;2022-09-13T00:17:54;9.20;99.90
17284;DHT22;8760;52.248;20.952;2022-09-13T00:20:22;9.10;99.90
17284;DHT22;8760;52.248;20.952;2022-09-13T00:22:48;9.10;99.90
17284;DHT22;8760;52.248;20.952;2022-09-13T00:25:16;9.10;99.90
17284;DHT22;8760;52.248;20.952;2022-09-13T00:27:43;9.10;99.90
17284;DHT22;8760;52.248;20.952;2022-09-13T00:30:11;9.10;99.90
17284;DHT22;8760;52.248;20.952;2022-09-13T00:32:38;9.00;99.90
17284;DHT22;8760;52.248;20.952;2022-09-13T00:35:06;9.00;99.90
17284;DHT22;8760;52.248;20.952;2022-09-13T00:37:34;9.00;99.90
17284;DHT22;8760;52.248;20.952;2022-09-13T00:40:01;8.90;99.90
17284;DHT22;8760;52.248;20.952;2022-09-13T00:42:30;8.90;99.90
17284;DHT22;8760;52.248;20.952;2022-09-13T00:44:59;8.90;99.90
17284;DHT22;8760;52.248;20.952;2022-09-13T00:47:32;8.90;99.90
17284;DHT22;8760;52.248;20.952;2022-09-13T00:50:04;8.90;99.90
17284;DHT22;8760;52.248;20.952;2022-09-13T00:52:35;8.80;99.90
17284;DHT22;8760;52.248;20.952;2022-09-13T00:55:06;8.80;99.90
17284;DHT22;8760;52.248;20.952;2022-09-13T00:57:34;8.80;99.90
17284;DHT22;8760;52.248;20.952;2022-09-13T01:00:04;8.80;99.90
17284;DHT22;8760;52.248;20.952;2022-09-13T01:02:36;8.80;99.90
17284;DHT22;8760;52.248;20.952;2022-09-13T01:05:04;8.70;99.90
17284;DHT22;8760;52.248;20.952;2022-09-13T01:07:31;8.80;99.90
17284;DHT22;8760;52.248;20.952;2022-09-13T01:10:02;8.70;99.90
17284;DHT22;8760;52.248;20.952;2022-09-13T01:12:36;8.70;99.90
17284;DHT22;8760;52.248;20.952;2022-09-13T01:15:05;8.70;99.90
17284;DHT22;8760;52.248;20.952;2022-09-13T01:17:33;8.70;99.90
17284;DHT22;8760;52.248;20.952;2022-09-13T01:20:05;8.70;99.90
17284;DHT22;8760;52.248;20.952;2022-09-13T01:23:03;8.70;99.90
17284;DHT22;8760;52.248;20.952;2022-09-13T01:31:50;8.60;99.90
17284;DHT22;8760;52.248;20.952;2022-09-13T01:34:27;8.60;99.90
17284;DHT22;8760;52.248;20.952;2022-09-13T01:37:12;8.60;99.90
17284;DHT22;8760;52.248;20.952;2022-09-13T01:39:55;8.60;99.90
17284;DHT22;8760;52.248;20.952;2022-09-13T01:42:29;8.60;99.90
17284;DHT22;8760;52.248;20.952;2022-09-13T01:45:06;8.60;99.90
17284;DHT22;8760;52.248;20.952;2022-09-13T01:47:44;8.60;99.90
17284;DHT22;8760;52.248;20.952;2022-09-13T01:50:18;8.50;99.90
17284;DHT22;8760;52.248;20.952;2022-09-13T01:52:51;8.50;99.90
17284;DHT22;8760;52.248;20.952;2022-09-13T01:55:25;8.50;99.90
17284;DHT22;8760;52.248;20.952;2022-09-13T01:58:00;8.40;99.90
17284;DHT22;8760;52.248;20.952;2022-09-13T02:00:31;8.40;99.90
17284;DHT22;8760;52.248;20.952;2022-09-13T02:03:04;8.40;99.90
17284;DHT22;8760;52.248;20.952;2022-09-13T02:05:37;8.40;99.90
17284;DHT22;8760;52.248;20.952;2022-09-13T02:08:08;8.30;99.90
17284;DHT22;8760;52.248;20.952;2022-09-13T02:10:40;8.30;99.90
17284;DHT22;8760;52.248;20.952;2022-09-13T02:13:10;8.30;99.90
17284;DHT22;8760;52.248;20.952;2022-09-13T02:15:41;8.30;99.90
17284;DHT22;8760;52.248;20.952;2022-09-13T02:18:14;8.30;99.90
17284;DHT22;8760;52.248;20.952;2022-09-13T02:20:43;8.30;99.90
17284;DHT22;8760;52.248;20.952;2022-09-13T02:23:13;8.30;99.90
17284;DHT22;8760;52.248;20.952;2022-09-13T02:25:43;8.30;99.90
17284;DHT22;8760;52.248;20.952;2022-09-13T02:28:16;8.30;99.90
17284;DHT22;8760;52.248;20.952;2022-09-13T02:30:50;8.30;99.90
17284;DHT22;8760;52.248;20.952;2022-09-13T02:33:23;8.20;99.90
17284;DHT22;8760;52.248;20.952;2022-09-13T02:35:56;8.20;99.90
17284;DHT22;8760;52.248;20.952;2022-09-13T02:38:26;8.20;99.90
17284;DHT22;8760;52.248;20.952;2022-09-13T02:40:59;8.20;99.90
17284;DHT22;8760;52.248;20.952;2022-09-13T02:43:30;8.10;99.90
17284;DHT22;8760;52.248;20.952;2022-09-13T02:46:08;8.10;99.90
17284;DHT22;8760;52.248;20.952;2022-09-13T02:48:48;8.00;99.90
17284;DHT22;8760;52.248;20.952;2022-09-13T02:51:22;8.10;99.90
17284;DHT22;8760;52.248;20.952;2022-09-13T02:53:54;8.00;99.90
17284;DHT22;8760;52.248;20.952;2022-09-13T02:56:31;8.00;99.90
17284;DHT22;8760;52.248;20.952;2022-09-13T02:59:03;8.00;99.90
17284;DHT22;8760;52.248;20.952;2022-09-13T03:01:31;7.90;99.90
17284;DHT22;8760;52.248;20.952;2022-09-13T03:04:01;8.00;99.90
17284;DHT22;8760;52.248;20.952;2022-09-13T03:06:28;7.90;99.90
17284;DHT22;8760;52.248;20.952;2022-09-13T03:08:57;7.90;99.90
17284;DHT22;8760;52.248;20.952;2022-09-13T03:11:35;7.90;99.90
17284;DHT22;8760;52.248;20.952;2022-09-13T03:14:16;7.90;99.90
17284;DHT22;8760;52.248;20.952;2022-09-13T03:17:05;7.90;99.90
17284;DHT22;8760;52.248;20.952;2022-09-13T03:19:47;7.80;99.90
17284;DHT22;8760;52.248;20.952;2022-09-13T03:22:32;7.80;99.90
17284;DHT22;8760;52.248;20.952;2022-09-13T03:25:07;7.80;99.90
17284;DHT22;8760;52.248;20.952;2022-09-13T03:27:44;7.80;99.90
17284;DHT22;8760;52.248;20.952;2022-09-13T03:30:15;7.80;99.90
17284;DHT22;8760;52.248;20.952;2022-09-13T03:32:48;7.70;99.90
17284;DHT22;8760;52.248;20.952;2022-09-13T03:35:24;7.70;99.90
17284;DHT22;8760;52.248;20.952;2022-09-13T03:37:56;7.70;99.90
17284;DHT22;8760;52.248;20.952;2022-09-13T03:40:35;7.70;99.90
17284;DHT22;8760;52.248;20.952;2022-09-13T03:43:09;7.70;99.90
17284;DHT22;8760;52.248;20.952;2022-09-13T03:45:41;7.70;99.90
17284;DHT22;8760;52.248;20.952;2022-09-13T03:48:09;7.70;99.90
17284;DHT22;8760;52.248;20.952;2022-09-13T03:50:39;7.70;99.90
17284;DHT22;8760;52.248;20.952;2022-09-13T03:53:09;7.70;99.90
17284;DHT22;8760;52.248;20.952;2022-09-13T03:55:39;7.70;99.90
17284;DHT22;8760;52.248;20.952;2022-09-13T03:58:09;7.70;99.90
17284;DHT22;8760;52.248;20.952;2022-09-13T04:00:35;7.60;99.90
17284;DHT22;8760;52.248;20.952;2022-09-13T04:03:05;7.60;99.90
17284;DHT22;8760;52.248;20.952;2022-09-13T04:05:32;7.60;99.90
17284;DHT22;8760;52.248;20.952;2022-09-13T04:08:01;7.60;99.90
17284;DHT22;8760;52.248;20.952;2022-09-13T04:10:28;7.60;99.90
17284;DHT22;8760;52.248;20.952;2022-09-13T04:12:56;7.60;99.90
17284;DHT22;8760;52.248;20.952;2022-09-13T04:15:24;7.60;99.90
17284;DHT22;8760;52.248;20.952;2022-09-13T04:17:51;7.60;99.90
17284;DHT22;8760;52.248;20.952;2022-09-13T04:20:17;7.60;99.90
17284;DHT22;8760;52.248;20.952;2022-09-13T04:22:50;7.60;99.90
17284;DHT22;8760;52.248;20.952;2022-09-13T04:25:18;7.50;99.90
17284;DHT22;8760;52.248;20.952;2022-09-13T04:27:45;7.50;99.90
17284;DHT22;8760;52.248;20.952;2022-09-13T04:30:12;7.50;99.90
17284;DHT22;8760;52.248;20.952;2022-09-13T04:32:41;7.50;99.90
17284;DHT22;8760;52.248;20.952;2022-09-13T04:35:09;7.50;99.90
17284;DHT22;8760;52.248;20.952;2022-09-13T04:37:36;7.50;99.90
17284;DHT22;8760;52.248;20.952;2022-09-13T04:40:04;7.50;99.90
17284;DHT22;8760;52.248;20.952;2022-09-13T04:42:32;7.50;99.90
17284;DHT22;8760;52.248;20.952;2022-09-13T04:44:59;7.50;99.90
17284;DHT22;8760;52.248;20.952;2022-09-13T04:47:26;7.60;99.90
17284;DHT22;8760;52.248;20.952;2022-09-13T04:49:52;7.60;99.90
17284;DHT22;8760;52.248;20.952;2022-09-13T04:52:19;7.60;99.90
17284;DHT22;8760;52.248;20.952;2022-09-13T04:54:46;7.70;99.90
17284;DHT22;8760;52.248;20.952;2022-09-13T04:57:13;7.70;99.90
17284;DHT22;8760;52.248;20.952;2022-09-13T04:59:42;7.80;99.90
17284;DHT22;8760;52.248;20.952;2022-09-13T05:02:09;7.80;99.90
17284;DHT22;8760;52.248;20.952;2022-09-13T05:04:36;7.90;99.90
17284;DHT22;8760;52.248;20.952;2022-09-13T05:07:03;7.90;99.90
17284;DHT22;8760;52.248;20.952;2022-09-13T05:09:30;8.00;99.90
17284;DHT22;8760;52.248;20.952;2022-09-13T05:11:57;8.00;99.90
17284;DHT22;8760;52.248;20.952;2022-09-13T05:14:24;8.20;99.90
17284;DHT22;8760;52.248;20.952;2022-09-13T05:16:52;8.30;99.90
17284;DHT22;8760;52.248;20.952;2022-09-13T05:19:19;8.30;99.90
17284;DHT22;8760;52.248;20.952;2022-09-13T05:21:46;8.40;99.90
17284;DHT22;8760;52.248;20.952;2022-09-13T05:24:13;8.50;99.90
17284;DHT22;8760;52.248;20.952;2022-09-13T05:26:40;8.70;99.90
17284;DHT22;8760;52.248;20.952;2022-09-13T05:29:07;8.80;99.90
17284;DHT22;8760;52.248;20.952;2022-09-13T05:31:35;8.90;99.90
17284;DHT22;8760;52.248;20.952;2022-09-13T05:34:05;9.00;99.90
17284;DHT22;8760;52.248;20.952;2022-09-13T05:36:32;9.20;99.90
17284;DHT22;8760;52.248;20.952;2022-09-13T05:38:59;9.30;99.90
17284;DHT22;8760;52.248;20.952;2022-09-13T05:41:26;9.50;99.90
17284;DHT22;8760;52.248;20.952;2022-09-13T05:43:53;9.70;99.90
17284;DHT22;8760;52.248;20.952;2022-09-13T05:46:20;9.80;99.90
17284;DHT22;8760;52.248;20.952;2022-09-13T05:48:48;10.00;99.90
17284;DHT22;8760;52.248;20.952;2022-09-13T05:51:18;10.10;99.90
17284;DHT22;8760;52.248;20.952;2022-09-13T05:53:47;10.20;99.90
17284;DHT22;8760;52.248;20.952;2022-09-13T05:56:15;10.40;99.90
17284;DHT22;8760;52.248;20.952;2022-09-13T05:58:43;10.60;99.90
17284;DHT22;8760;52.248;20.952;2022-09-13T06:01:12;10.80;99.90
17284;DHT22;8760;52.248;20.952;2022-09-13T06:03:38;11.00;99.90
17284;DHT22;8760;52.248;20.952;2022-09-13T06:06:06;11.30;99.90
17284;DHT22;8760;52.248;20.952;2022-09-13T06:08:35;11.50;99.90
17284;DHT22;8760;52.248;20.952;2022-09-13T06:11:03;11.70;99.90
17284;DHT22;8760;52.248;20.952;2022-09-13T06:13:30;11.90;99.90
17284;DHT22;8760;52.248;20.952;2022-09-13T06:15:59;12.00;99.90
17284;DHT22;8760;52.248;20.952;2022-09-13T06:18:26;12.20;99.90
17284;DHT22;8760;52.248;20.952;2022-09-13T06:20:57;12.40;99.90
17284;DHT22;8760;52.248;20.952;2022-09-13T06:23:24;12.60;99.90
17284;DHT22;8760;52.248;20.952;2022-09-13T06:26:00;12.70;99.90
17284;DHT22;8760;52.248;20.952;2022-09-13T06:28:27;12.80;99.90
17284;DHT22;8760;52.248;20.952;2022-09-13T06:30:59;13.00;99.90
17284;DHT22;8760;52.248;20.952;2022-09-13T06:33:26;13.20;99.90
17284;DHT22;8760;52.248;20.952;2022-09-13T06:35:53;13.30;99.90
17284;DHT22;8760;52.248;20.952;2022-09-13T06:38:20;13.50;99.90
17284;DHT22;8760;52.248;20.952;2022-09-13T06:40:46;13.70;99.90
17284;DHT22;8760;52.248;20.952;2022-09-13T06:43:14;13.80;99.90
17284;DHT22;8760;52.248;20.952;2022-09-13T06:45:41;14.00;99.90
17284;DHT22;8760;52.248;20.952;2022-09-13T06:48:08;14.40;99.90
17284;DHT22;8760;52.248;20.952;2022-09-13T06:50:35;14.70;99.90
17284;DHT22;8760;52.248;20.952;2022-09-13T06:53:01;15.00;99.90
17284;DHT22;8760;52.248;20.952;2022-09-13T06:55:28;15.40;99.90
17284;DHT22;8760;52.248;20.952;2022-09-13T06:57:55;15.60;75.20
17284;DHT22;8760;52.248;20.952;2022-09-13T07:00:25;15.80;83.60
17284;DHT22;8760;52.248;20.952;2022-09-13T07:02:51;16.20;84.80
17284;DHT22;8760;52.248;20.952;2022-09-13T07:05:18;16.70;34.40
17284;DHT22;8760;52.248;20.952;2022-09-13T07:07:45;17.00;99.90
17284;DHT22;8760;52.248;20.952;2022-09-13T07:10:12;17.20;99.90
17284;DHT22;8760;52.248;20.952;2022-09-13T07:12:39;17.40;1.00
17284;DHT22;8760;52.248;20.952;2022-09-13T07:15:07;17.70;1.00
17284;DHT22;8760;52.248;20.952;2022-09-13T07:17:35;18.20;99.90
17284;DHT22;8760;52.248;20.952;2022-09-13T07:20:02;18.50;1.00
17284;DHT22;8760;52.248;20.952;2022-09-13T07:22:31;18.70;1.00
17284;DHT22;8760;52.248;20.952;2022-09-13T07:24:58;18.60;99.90
17284;DHT22;8760;52.248;20.952;2022-09-13T07:27:26;19.00;99.90
17284;DHT22;8760;52.248;20.952;2022-09-13T07:29:52;19.30;99.90
17284;DHT22;8760;52.248;20.952;2022-09-13T07:32:19;19.70;73.80
17284;DHT22;8760;52.248;20.952;2022-09-13T07:34:49;19.90;1.00
17284;DHT22;8760;52.248;20.952;2022-09-13T07:37:15;20.40;1.00
17284;DHT22;8760;52.248;20.952;2022-09-13T07:39:42;20.50;1.00
17284;DHT22;8760;52.248;20.952;2022-09-13T07:42:09;20.80;1.00
17284;DHT22;8760;52.248;20.952;2022-09-13T07:44:36;21.00;1.00
17284;DHT22;8760;52.248;20.952;2022-09-13T07:47:03;21.40;1.00
17284;DHT22;8760;52.248;20.952;2022-09-13T07:49:29;21.40;1.00
17284;DHT22;8760;52.248;20.952;2022-09-13T07:51:57;21.70;1.00
17284;DHT22;8760;52.248;20.952;2022-09-13T07:54:24;21.60;1.00
17284;DHT22;8760;52.248;20.952;2022-09-13T07:56:51;21.80;1.00
17284;DHT22;8760;52.248;20.952;2022-09-13T07:59:18;22.30;1.00
17284;DHT22;8760;52.248;20.952;2022-09-13T08:01:46;22.50;99.90
17284;DHT22;8760;52.248;20.952;2022-09-13T08:04:15;22.70;99.90
17284;DHT22;8760;52.248;20.952;2022-09-13T08:06:43;22.80;99.90
17284;DHT22;8760;52.248;20.952;2022-09-13T08:09:13;22.80;99.90
17284;DHT22;8760;52.248;20.952;2022-09-13T08:11:42;22.70;99.90
17284;DHT22;8760;52.248;20.952;2022-09-13T08:14:11;22.60;99.90
17284;DHT22;8760;52.248;20.952;2022-09-13T08:16:38;22.40;99.90
17284;DHT22;8760;52.248;20.952;2022-09-13T08:19:06;22.40;99.90
17284;DHT22;8760;52.248;20.952;2022-09-13T08:21:35;22.60;99.90
17284;DHT22;8760;52.248;20.952;2022-09-13T08:24:03;22.70;99.90
17284;DHT22;8760;52.248;20.952;2022-09-13T08:26:33;22.70;99.90
17284;DHT22;8760;52.248;20.952;2022-09-13T08:29:02;22.90;99.90
17284;DHT22;8760;52.248;20.952;2022-09-13T08:31:30;22.70;99.90
17284;DHT22;8760;52.248;20.952;2022-09-13T08:33:57;23.00;99.90
17284;DHT22;8760;52.248;20.952;2022-09-13T08:36:24;22.90;99.90
17284;DHT22;8760;52.248;20.952;2022-09-13T08:38:53;22.80;99.90
17284;DHT22;8760;52.248;20.952;2022-09-13T08:44:17;22.80;99.90
17284;DHT22;8760;52.248;20.952;2022-09-13T08:46:48;22.80;99.90
17284;DHT22;8760;52.248;20.952;2022-09-13T08:49:18;22.70;99.90
17284;DHT22;8760;52.248;20.952;2022-09-13T08:51:47;22.80;99.90
17284;DHT22;8760;52.248;20.952;2022-09-13T08:54:16;22.90;99.90
17284;DHT22;8760;52.248;20.952;2022-09-13T08:56:50;22.80;99.90
17284;DHT22;8760;52.248;20.952;2022-09-13T08:59:48;23.10;99.90
17284;DHT22;8760;52.248;20.952;2022-09-13T09:02:38;23.20;99.90
17284;DHT22;8760;52.248;20.952;2022-09-13T09:05:13;23.10;99.90
17284;DHT22;8760;52.248;20.952;2022-09-13T09:07:43;23.00;99.90
17284;DHT22;8760;52.248;20.952;2022-09-13T09:10:16;22.80;99.90
17284;DHT22;8760;52.248;20.952;2022-09-13T09:12:46;22.40;99.90
17284;DHT22;8760;52.248;20.952;2022-09-13T09:15:18;22.20;99.90
17284;DHT22;8760;52.248;20.952;2022-09-13T09:17:50;22.00;99.90
17284;DHT22;8760;52.248;20.952;2022-09-13T09:20:23;21.90;99.90
17284;DHT22;8760;52.248;20.952;2022-09-13T09:22:52;21.50;99.90
17284;DHT22;8760;52.248;20.952;2022-09-13T09:25:20;21.20;99.90
17284;DHT22;8760;52.248;20.952;2022-09-13T09:27:48;21.00;99.90
17284;DHT22;8760;52.248;20.952;2022-09-13T09:30:17;21.30;99.90
17284;DHT22;8760;52.248;20.952;2022-09-13T09:32:56;21.50;99.90
17284;DHT22;8760;52.248;20.952;2022-09-13T09:35:37;22.00;99.90
17284;DHT22;8760;52.248;20.952;2022-09-13T09:38:22;22.10;99.90
17284;DHT22;8760;52.248;20.952;2022-09-13T09:40:52;22.00;99.90
17284;DHT22;8760;52.248;20.952;2022-09-13T09:43:23;22.00;99.90
17284;DHT22;8760;52.248;20.952;2022-09-13T09:45:56;22.00;99.90
17284;DHT22;8760;52.248;20.952;2022-09-13T09:48:26;21.80;99.90
17284;DHT22;8760;52.248;20.952;2022-09-13T09:50:56;21.60;99.90
17284;DHT22;8760;52.248;20.952;2022-09-13T09:53:27;21.40;99.90
17284;DHT22;8760;52.248;20.952;2022-09-13T09:56:00;21.30;99.90
17284;DHT22;8760;52.248;20.952;2022-09-13T09:58:39;21.60;99.90
17284;DHT22;8760;52.248;20.952;2022-09-13T10:01:17;22.00;99.90
17284;DHT22;8760;52.248;20.952;2022-09-13T10:03:50;22.00;99.90
17284;DHT22;8760;52.248;20.952;2022-09-13T10:06:20;22.00;99.90
17284;DHT22;8760;52.248;20.952;2022-09-13T10:08:54;22.50;99.90
17284;DHT22;8760;52.248;20.952;2022-09-13T10:11:24;22.80;99.90
17284;DHT22;8760;52.248;20.952;2022-09-13T10:14:03;23.10;99.90
17284;DHT22;8760;52.248;20.952;2022-09-13T10:16:31;22.80;99.90
17284;DHT22;8760;52.248;20.952;2022-09-13T10:19:22;22.40;99.90
17284;DHT22;8760;52.248;20.952;2022-09-13T10:22:00;21.90;99.90
17284;DHT22;8760;52.248;20.952;2022-09-13T10:24:27;21.40;99.90
17284;DHT22;8760;52.248;20.952;2022-09-13T10:26:55;21.00;99.90
17284;DHT22;8760;52.248;20.952;2022-09-13T10:29:23;20.80;99.90
17284;DHT22;8760;52.248;20.952;2022-09-13T10:31:53;20.50;99.90
17284;DHT22;8760;52.248;20.952;2022-09-13T10:34:24;20.40;99.90
17284;DHT22;8760;52.248;20.952;2022-09-13T10:36:55;20.30;99.90
17284;DHT22;8760;52.248;20.952;2022-09-13T10:39:23;20.20;99.90
17284;DHT22;8760;52.248;20.952;2022-09-13T10:41:53;19.90;99.90
17284;DHT22;8760;52.248;20.952;2022-09-13T10:44:31;19.80;99.90
17284;DHT22;8760;52.248;20.952;2022-09-13T10:47:05;19.80;99.90
17284;DHT22;8760;52.248;20.952;2022-09-13T10:49:43;20.00;99.90
17284;DHT22;8760;52.248;20.952;2022-09-13T10:52:23;20.50;99.90
17284;DHT22;8760;52.248;20.952;2022-09-13T10:54:51;20.80;99.90
17284;DHT22;8760;52.248;20.952;2022-09-13T10:57:32;21.10;99.90
17284;DHT22;8760;52.248;20.952;2022-09-13T10:59:59;21.20;99.90
17284;DHT22;8760;52.248;20.952;2022-09-13T11:02:43;21.00;99.90
17284;DHT22;8760;52.248;20.952;2022-09-13T11:05:20;20.60;99.90
17284;DHT22;8760;52.248;20.952;2022-09-13T11:08:07;20.30;99.90
17284;DHT22;8760;52.248;20.952;2022-09-13T11:10:45;20.30;99.90
17284;DHT22;8760;52.248;20.952;2022-09-13T11:13:23;20.20;99.90
17284;DHT22;8760;52.248;20.952;2022-09-13T11:15:56;20.10;99.90
17284;DHT22;8760;52.248;20.952;2022-09-13T11:18:44;20.10;99.90
17284;DHT22;8760;52.248;20.952;2022-09-13T11:21:31;20.00;99.90
17284;DHT22;8760;52.248;20.952;2022-09-13T11:24:11;20.00;99.90
17284;DHT22;8760;52.248;20.952;2022-09-13T11:26:45;19.90;99.90
17284;DHT22;8760;52.248;20.952;2022-09-13T11:29:24;19.80;99.90
17284;DHT22;8760;52.248;20.952;2022-09-13T11:32:01;19.70;99.90
17284;DHT22;8760;52.248;20.952;2022-09-13T11:34:38;19.60;99.90
17284;DHT22;8760;52.248;20.952;2022-09-13T11:37:26;19.40;99.90
17284;DHT22;8760;52.248;20.952;2022-09-13T11:40:05;19.40;99.90
17284;DHT22;8760;52.248;20.952;2022-09-13T11:42:45;19.40;99.90
17284;DHT22;8760;52.248;20.952;2022-09-13T11:45:18;19.60;99.90
17284;DHT22;8760;52.248;20.952;2022-09-13T11:48:07;19.70;99.90
17284;DHT22;8760;52.248;20.952;2022-09-13T11:50:49;19.60;99.90
17284;DHT22;8760;52.248;20.952;2022-09-13T11:53:44;19.60;99.90
17284;DHT22;8760;52.248;20.952;2022-09-13T11:56:19;19.60;99.90
17284;DHT22;8760;52.248;20.952;2022-09-13T11:58:50;19.50;99.90
17284;DHT22;8760;52.248;20.952;2022-09-13T12:01:20;19.40;99.90
17284;DHT22;8760;52.248;20.952;2022-09-13T12:03:52;19.30;99.90
17284;DHT22;8760;52.248;20.952;2022-09-13T12:06:26;19.30;99.90
17284;DHT22;8760;52.248;20.952;2022-09-13T12:08:58;19.40;99.90
17284;DHT22;8760;52.248;20.952;2022-09-13T12:11:30;19.40;1.00
17284;DHT22;8760;52.248;20.952;2022-09-13T12:14:00;19.60;1.00
17284;DHT22;8760;52.248;20.952;2022-09-13T12:16:31;19.60;1.00
17284;DHT22;8760;52.248;20.952;2022-09-13T12:19:01;19.50;1.00
17284;DHT22;8760;52.248;20.952;2022-09-13T12:21:34;19.60;1.00
17284;DHT22;8760;52.248;20.952;2022-09-13T12:24:04;19.40;1.00
17284;DHT22;8760;52.248;20.952;2022-09-13T12:26:38;19.40;1.00
17284;DHT22;8760;52.248;20.952;2022-09-13T12:29:13;19.30;1.00
17284;DHT22;8760;52.248;20.952;2022-09-13T12:31:41;19.30;1.00
17284;DHT22;8760;52.248;20.952;2022-09-13T12:34:14;19.20;1.00
17284;DHT22;8760;52.248;20.952;2022-09-13T12:37:04;19.10;1.00
17284;DHT22;8760;52.248;20.952;2022-09-13T12:45:41;18.90;47.80
17284;DHT22;8760;52.248;20.952;2022-09-13T12:48:25;18.80;99.90
17284;DHT22;8760;52.248;20.952;2022-09-13T12:51:07;18.70;99.90
17284;DHT22;8760;52.248;20.952;2022-09-13T12:53:58;18.70;99.90
17284;DHT22;8760;52.248;20.952;2022-09-13T12:56:41;18.70;99.90
17284;DHT22;8760;52.248;20.952;2022-09-13T12:59:25;18.70;99.90
17284;DHT22;8760;52.248;20.952;2022-09-13T13:02:00;18.70;99.90
17284;DHT22;8760;52.248;20.952;2022-09-13T13:04:31;18.70;99.90
17284;DHT22;8760;52.248;20.952;2022-09-13T13:07:01;18.60;99.90
17284;DHT22;8760;52.248;20.952;2022-09-13T13:09:36;18.50;99.90
17284;DHT22;8760;52.248;20.952;2022-09-13T13:12:05;18.50;1.00
17284;DHT22;8760;52.248;20.952;2022-09-13T13:14:47;18.50;1.00
17284;DHT22;8760;52.248;20.952;2022-09-13T13:17:38;18.40;1.00
17284;DHT22;8760;52.248;20.952;2022-09-13T13:23:21;18.40;1.00
17284;DHT22;8760;52.248;20.952;2022-09-13T13:26:02;18.40;1.00
17284;DHT22;8760;52.248;20.952;2022-09-13T13:31:36;18.30;1.00
17284;DHT22;8760;52.248;20.952;2022-09-13T13:34:30;18.30;13.60
17284;DHT22;8760;52.248;20.952;2022-09-13T13:37:02;18.30;66.30
17284;DHT22;8760;52.248;20.952;2022-09-13T13:39:36;18.40;95.70
17284;DHT22;8760;52.248;20.952;2022-09-13T13:42:21;18.40;99.90
17284;DHT22;8760;52.248;20.952;2022-09-13T13:45:12;18.50;56.10
17284;DHT22;8760;52.248;20.952;2022-09-13T13:50:27;18.60;12.90
17284;DHT22;8760;52.248;20.952;2022-09-13T13:52:56;18.60;1.00
17284;DHT22;8760;52.248;20.952;2022-09-13T13:55:39;18.60;1.00
17284;DHT22;8760;52.248;20.952;2022-09-13T13:58:23;18.50;47.80
17284;DHT22;8760;52.248;20.952;2022-09-13T14:00:52;18.50;99.90
17284;DHT22;8760;52.248;20.952;2022-09-13T14:03:27;18.50;99.90
17284;DHT22;8760;52.248;20.952;2022-09-13T14:06:05;18.50;99.90
17284;DHT22;8760;52.248;20.952;2022-09-13T14:08:44;18.50;1.00
17284;DHT22;8760;52.248;20.952;2022-09-13T14:11:26;18.50;99.90
17284;DHT22;8760;52.248;20.952;2022-09-13T14:14:15;18.50;99.90
17284;DHT22;8760;52.248;20.952;2022-09-13T14:16:56;18.50;99.90
17284;DHT22;8760;52.248;20.952;2022-09-13T14:19:26;18.60;99.90
17284;DHT22;8760;52.248;20.952;2022-09-13T14:22:12;18.70;99.90
17284;DHT22;8760;52.248;20.952;2022-09-13T14:24:40;18.70;1.00
17284;DHT22;8760;52.248;20.952;2022-09-13T14:27:17;18.70;1.00
17284;DHT22;8760;52.248;20.952;2022-09-13T14:29:47;18.70;1.00
17284;DHT22;8760;52.248;20.952;2022-09-13T14:32:18;18.60;1.00
17284;DHT22;8760;52.248;20.952;2022-09-13T14:34:55;18.70;1.00
17284;DHT22;8760;52.248;20.952;2022-09-13T14:37:26;18.60;1.00
17284;DHT22;8760;52.248;20.952;2022-09-13T14:39:56;18.60;1.00
17284;DHT22;8760;52.248;20.952;2022-09-13T14:42:23;18.60;1.00
17284;DHT22;8760;52.248;20.952;2022-09-13T14:44:52;18.60;22.60
17284;DHT22;8760;52.248;20.952;2022-09-13T14:47:23;18.60;11.90
17284;DHT22;8760;52.248;20.952;2022-09-13T14:49:59;18.50;93.10
17284;DHT22;8760;52.248;20.952;2022-09-13T14:52:31;18.50;99.90
17284;DHT22;8760;52.248;20.952;2022-09-13T14:55:02;18.50;99.90
17284;DHT22;8760;52.248;20.952;2022-09-13T14:57:35;18.50;99.90
17284;DHT22;8760;52.248;20.952;2022-09-13T15:00:13;18.40;99.90
17284;DHT22;8760;52.248;20.952;2022-09-13T15:02:46;18.40;99.90
17284;DHT22;8760;52.248;20.952;2022-09-13T15:05:16;18.40;1.00
17284;DHT22;8760;52.248;20.952;2022-09-13T15:07:43;18.30;1.00
17284;DHT22;8760;52.248;20.952;2022-09-13T15:10:21;18.30;1.00
17284;DHT22;8760;52.248;20.952;2022-09-13T15:12:52;18.30;1.00
17284;DHT22;8760;52.248;20.952;2022-09-13T15:15:41;18.30;1.00
17284;DHT22;8760;52.248;20.952;2022-09-13T15:18:23;18.30;1.00
17284;DHT22;8760;52.248;20.952;2022-09-13T15:20:52;18.20;68.90
17284;DHT22;8760;52.248;20.952;2022-09-13T15:23:23;18.20;99.90
17284;DHT22;8760;52.248;20.952;2022-09-13T15:25:52;18.20;1.00
17284;DHT22;8760;52.248;20.952;2022-09-13T15:28:23;18.20;1.00
17284;DHT22;8760;52.248;20.952;2022-09-13T15:30:52;18.20;1.00
17284;DHT22;8760;52.248;20.952;2022-09-13T15:33:25;18.20;1.00
17284;DHT22;8760;52.248;20.952;2022-09-13T15:36:12;18.20;1.00
17284;DHT22;8760;52.248;20.952;2022-09-13T15:38:56;18.20;1.00
17284;DHT22;8760;52.248;20.952;2022-09-13T15:41:28;18.10;1.00
17284;DHT22;8760;52.248;20.952;2022-09-13T15:43:56;18.10;99.90
17284;DHT22;8760;52.248;20.952;2022-09-13T15:46:24;18.10;1.00
17284;DHT22;8760;52.248;20.952;2022-09-13T15:48:53;18.00;1.00
17284;DHT22;8760;52.248;20.952;2022-09-13T15:51:20;18.00;1.00
17284;DHT22;8760;52.248;20.952;2022-09-13T15:53:48;17.90;1.00
17284;DHT22;8760;52.248;20.952;2022-09-13T15:56:17;17.90;1.00
17284;DHT22;8760;52.248;20.952;2022-09-13T15:58:45;17.90;1.00
17284;DHT22;8760;52.248;20.952;2022-09-13T16:01:13;17.90;99.90
17284;DHT22;8760;52.248;20.952;2022-09-13T16:03:41;17.90;99.90
17284;DHT22;8760;52.248;20.952;2022-09-13T16:06:08;17.90;99.90
17284;DHT22;8760;52.248;20.952;2022-09-13T16:08:36;17.90;99.90
17284;DHT22;8760;52.248;20.952;2022-09-13T16:11:03;17.90;99.90
17284;DHT22;8760;52.248;20.952;2022-09-13T16:13:30;17.80;1.00
17284;DHT22;8760;52.248;20.952;2022-09-13T16:15:58;17.80;1.00
17284;DHT22;8760;52.248;20.952;2022-09-13T16:18:25;17.80;1.00
17284;DHT22;8760;52.248;20.952;2022-09-13T16:20:53;17.70;99.90
17284;DHT22;8760;52.248;20.952;2022-09-13T16:23:20;17.70;99.90
17284;DHT22;8760;52.248;20.952;2022-09-13T16:25:47;17.60;99.90
17284;DHT22;8760;52.248;20.952;2022-09-13T16:28:16;17.60;1.00
17284;DHT22;8760;52.248;20.952;2022-09-13T16:30:45;17.60;1.00
17284;DHT22;8760;52.248;20.952;2022-09-13T16:33:13;17.60;1.00